createdAt,value
2022-09-10T00:00:02.978Z,0.02
2022-09-10T00:01:02.574Z,0.01
2022-09-10T00:02:02.995Z,0.01
2022-09-10T00:03:03.222Z,0.02
2022-09-10T00:04:02.759Z,0.02
2022-09-10T00:05:03.061Z,0.01
2022-09-10T00:06:02.850Z,0.02
2022-09-10T00:07:02.386Z,0.02
2022-09-10T00:08:02.000Z,0.02
2022-09-10T00:09:01.905Z,0.02
2022-09-10T00:10:02.373Z,0.02
2022-09-10T00:11:01.948Z,0.01
2022-09-10T00:12:02.377Z,0.01
2022-09-10T00:13:02.018Z,0.02
2022-09-10T00:14:01.831Z,0.02
2022-09-10T00:15:01.836Z,0.02
2022-09-10T00:16:02.342Z,0.02
2022-09-10T00:17:02.503Z,0.02
2022-09-10T00:18:02.278Z,0.03
2022-09-10T00:19:02.761Z,0.01
2022-09-10T00:20:02.524Z,0.02
2022-09-10T00:21:02.299Z,0.02
2022-09-10T00:22:02.429Z,0.02
2022-09-10T00:23:02.056Z,0.02
2022-09-10T00:24:01.931Z,0.02
2022-09-10T00:25:06.250Z,0.02
2022-09-10T00:26:01.960Z,0.02
2022-09-10T00:27:02.860Z,0.03
2022-09-10T00:28:02.663Z,0.02
2022-09-10T00:29:02.538Z,0.02
2022-09-10T00:30:03.114Z,0.02
2022-09-10T00:31:02.789Z,0.03
2022-09-10T00:32:03.125Z,0.02
2022-09-10T00:33:03.079Z,0.02
2022-09-10T00:34:02.943Z,0.02
2022-09-10T00:35:03.235Z,0.02
2022-09-10T00:36:03.160Z,0.02
2022-09-10T00:37:01.980Z,0.02
2022-09-10T00:38:02.549Z,0.02
2022-09-10T00:39:02.171Z,0.02
2022-09-10T00:40:02.108Z,0.02
2022-09-10T00:41:01.989Z,0.02
2022-09-10T00:42:03.014Z,0.02
2022-09-10T00:43:02.483Z,0.02
2022-09-10T00:44:02.937Z,0.02
2022-09-10T00:45:02.449Z,0.02
2022-09-10T00:46:03.020Z,0.03
2022-09-10T00:47:02.650Z,0.03
2022-09-10T00:48:02.694Z,0.02
2022-09-10T00:49:03.054Z,0.01
2022-09-10T00:50:02.921Z,0.02
2022-09-10T00:51:02.749Z,0.02
2022-09-10T00:52:02.461Z,0.02
2022-09-10T00:53:02.263Z,0.02
2022-09-10T00:54:02.838Z,0.02
2022-09-10T00:55:02.439Z,0.01
2022-09-10T00:56:02.505Z,0.02
2022-09-10T00:57:03.436Z,0.02
2022-09-10T00:58:03.562Z,0.02
2022-09-10T00:59:03.579Z,0.02
2022-09-10T01:00:03.235Z,0.03
2022-09-10T01:01:03.149Z,0.02
2022-09-10T01:02:02.793Z,0.02
2022-09-10T01:03:02.713Z,0.02
2022-09-10T01:04:02.576Z,0.02
2022-09-10T01:05:03.042Z,0.02
2022-09-10T01:06:03.121Z,0.02
2022-09-10T01:07:03.271Z,0.02
2022-09-10T01:08:03.142Z,0.02
2022-09-10T01:09:02.915Z,0.02
2022-09-10T01:10:02.806Z,0.02
2022-09-10T01:11:03.278Z,0.02
2022-09-10T01:12:04.525Z,0.02
2022-09-10T01:13:02.955Z,0.02
2022-09-10T01:14:03.232Z,0.02
2022-09-10T01:15:02.991Z,0.02
2022-09-10T01:16:03.500Z,0.02
2022-09-10T01:17:02.925Z,0.02
2022-09-10T01:18:02.641Z,0.02
2022-09-10T01:19:03.145Z,0.01
2022-09-10T01:20:03.008Z,0.02
2022-09-10T01:21:02.768Z,0.03
2022-09-10T01:22:03.171Z,0.02
2022-09-10T01:23:03.016Z,0.01
2022-09-10T01:24:03.477Z,0.02
2022-09-10T01:25:03.074Z,0.02
2022-09-10T01:26:03.567Z,0.01
2022-09-10T01:27:02.605Z,0.02
2022-09-10T01:28:02.762Z,0.02
2022-09-10T01:29:02.438Z,0.02
2022-09-10T01:30:02.269Z,0.02
2022-09-10T01:31:02.706Z,0.02
2022-09-10T01:32:03.031Z,0.02
2022-09-10T01:33:03.216Z,0.02
2022-09-10T01:34:03.074Z,0.02
2022-09-10T01:35:02.894Z,0.02
2022-09-10T01:36:02.682Z,0.02
2022-09-10T01:37:03.221Z,0.02
2022-09-10T01:38:03.503Z,0.03
2022-09-10T01:39:03.149Z,0.01
2022-09-10T01:40:03.068Z,0.02
2022-09-10T01:41:02.905Z,0.02
2022-09-10T01:42:03.351Z,0.02
2022-09-10T01:43:03.512Z,0.02
2022-09-10T01:44:03.299Z,0.02
2022-09-10T01:45:03.118Z,0.02
2022-09-10T01:46:03.671Z,0.02
2022-09-10T01:47:02.984Z,0.02
2022-09-10T01:48:02.780Z,0.02
2022-09-10T01:49:02.649Z,0.02
2022-09-10T01:50:03.223Z,0.02
2022-09-10T01:51:03.060Z,0.02
2022-09-10T01:52:02.589Z,0.02
2022-09-10T01:53:02.665Z,0.03
2022-09-10T01:54:02.386Z,0.01
2022-09-10T01:55:02.286Z,0.02
2022-09-10T01:56:02.478Z,0.02
2022-09-10T01:57:02.993Z,0.01
2022-09-10T01:58:02.816Z,0.02
2022-09-10T01:59:02.729Z,0.03
2022-09-10T02:00:03.235Z,0.02
2022-09-10T02:01:03.685Z,0.02
2022-09-10T02:02:03.279Z,0.01
2022-09-10T02:03:03.384Z,0.01
2022-09-10T02:04:03.257Z,0.02
2022-09-10T02:05:03.120Z,0.02
2022-09-10T02:06:02.923Z,0.02
2022-09-10T02:07:03.395Z,0.02
2022-09-10T02:08:03.161Z,0.02
2022-09-10T02:09:03.656Z,0.02
2022-09-10T02:10:03.691Z,0.02
2022-09-10T02:11:03.681Z,0.02
2022-09-10T02:12:02.936Z,0.02
2022-09-10T02:13:02.639Z,0.02
2022-09-10T02:14:03.097Z,0.02
2022-09-10T02:15:02.906Z,0.02
2022-09-10T02:16:02.823Z,0.02
2022-09-10T02:17:03.309Z,0.02
2022-09-10T02:18:03.171Z,0.02
2022-09-10T02:19:02.938Z,0.02
2022-09-10T02:20:03.388Z,0.02
2022-09-10T02:21:02.900Z,0.02
2022-09-10T02:22:03.110Z,0.01
2022-09-10T02:23:02.984Z,0.02
2022-09-10T02:24:03.451Z,0.02
2022-09-10T02:25:03.302Z,0.03
2022-09-10T02:26:03.505Z,0.02
2022-09-10T02:27:03.039Z,0.02
2022-09-10T02:28:02.976Z,0.02
2022-09-10T02:29:02.778Z,0.02
2022-09-10T02:30:02.567Z,0.02
2022-09-10T02:31:03.175Z,0.03
2022-09-10T02:32:03.402Z,0.02
2022-09-10T02:33:03.230Z,0.02
2022-09-10T02:34:03.050Z,0.02
2022-09-10T02:35:02.975Z,0.02
2022-09-10T02:36:02.902Z,0.03
2022-09-10T02:37:03.177Z,0.02
2022-09-10T02:38:02.704Z,0.02
2022-09-10T02:39:03.206Z,0.02
2022-09-10T02:40:02.983Z,0.02
2022-09-10T02:41:02.762Z,0.02
2022-09-10T02:42:02.766Z,0.02
2022-09-10T02:43:03.089Z,0.02
2022-09-10T02:44:02.949Z,0.01
2022-09-10T02:45:03.324Z,0.02
2022-09-10T02:46:02.883Z,0.02
2022-09-10T02:47:03.225Z,0.02
2022-09-10T02:48:03.050Z,0.02
2022-09-10T02:49:03.016Z,0.02
2022-09-10T02:50:02.832Z,0.02
2022-09-10T02:51:03.374Z,0.02
2022-09-10T02:52:03.104Z,0.02
2022-09-10T02:53:03.420Z,0.02
2022-09-10T02:54:03.218Z,0.02
2022-09-10T02:55:03.618Z,0.01
2022-09-10T02:56:03.413Z,0.02
2022-09-10T02:57:03.971Z,0.02
2022-09-10T02:58:03.373Z,0.02
2022-09-10T02:59:03.392Z,0.03
2022-09-10T03:00:03.622Z,0.02
2022-09-10T03:01:03.532Z,0.02
2022-09-10T03:02:03.048Z,0.02
2022-09-10T03:03:03.277Z,0.02
2022-09-10T03:04:02.798Z,0.02
2022-09-10T03:05:02.624Z,0.01
2022-09-10T03:06:02.583Z,0.01
2022-09-10T03:07:02.724Z,0.02
2022-09-10T03:08:02.565Z,0.02
2022-09-10T03:09:03.051Z,0.02
2022-09-10T03:10:02.690Z,0.01
2022-09-10T03:11:03.130Z,0.02
2022-09-10T03:12:03.345Z,0.02
2022-09-10T03:13:03.204Z,0.02
2022-09-10T03:14:02.753Z,0.01
2022-09-10T03:15:03.276Z,0.02
2022-09-10T03:16:03.003Z,0.02
2022-09-10T03:17:03.524Z,0.02
2022-09-10T03:18:03.130Z,0.03
2022-09-10T03:19:03.199Z,0.02
2022-09-10T03:20:02.978Z,0.02
2022-09-10T03:21:03.482Z,0.01
2022-09-10T03:22:03.956Z,0.02
2022-09-10T03:23:03.411Z,0.02
2022-09-10T03:24:05.342Z,0.01
2022-09-10T03:25:03.348Z,0.02
2022-09-10T03:26:03.809Z,0.02
2022-09-10T03:27:03.313Z,0.02
2022-09-10T03:28:02.918Z,0.01
2022-09-10T03:29:02.680Z,0.01
2022-09-10T03:30:03.152Z,0.02
2022-09-10T03:31:02.936Z,0.02
2022-09-10T03:32:03.308Z,0.02
2022-09-10T03:33:03.138Z,0.02
2022-09-10T03:34:03.020Z,0.01
2022-09-10T03:35:02.872Z,0.02
2022-09-10T03:36:03.392Z,0.03
2022-09-10T03:37:02.997Z,0.02
2022-09-10T03:38:03.439Z,0.02
2022-09-10T03:39:03.303Z,0.02
2022-09-10T03:40:03.240Z,0.01
2022-09-10T03:41:03.163Z,0.02
2022-09-10T03:42:02.999Z,0.01
2022-09-10T03:43:03.474Z,0.02
2022-09-10T03:44:03.325Z,0.02
2022-09-10T03:45:03.496Z,0.02
2022-09-10T03:46:03.269Z,0.02
2022-09-10T03:47:03.636Z,0.02
2022-09-10T03:48:03.131Z,0.03
2022-09-10T03:49:03.702Z,0.02
2022-09-10T03:50:03.215Z,0.01
2022-09-10T03:51:03.651Z,0.02
2022-09-10T03:52:04.033Z,0.02
2022-09-10T03:53:03.614Z,0.02
2022-09-10T03:54:03.444Z,0.02
2022-09-10T03:55:03.828Z,0.02
2022-09-10T03:56:03.599Z,0.02
2022-09-10T03:57:03.110Z,0.02
2022-09-10T03:58:03.311Z,0.02
2022-09-10T03:59:03.205Z,0.01
2022-09-10T04:00:03.672Z,0.02
2022-09-10T04:01:03.773Z,0.02
2022-09-10T04:02:03.324Z,0.02
2022-09-10T04:03:03.802Z,0.02
2022-09-10T04:04:03.577Z,0.02
2022-09-10T04:05:03.455Z,0.03
2022-09-10T04:06:03.549Z,0.02
2022-09-10T04:07:02.933Z,0.02
2022-09-10T04:08:03.030Z,0.02
2022-09-10T04:09:03.137Z,0.01
2022-09-10T04:10:02.793Z,0.02
2022-09-10T04:11:02.505Z,0.02
2022-09-10T04:12:03.040Z,0.02
2022-09-10T04:13:03.115Z,0.01
2022-09-10T04:14:02.954Z,0.02
2022-09-10T04:15:03.529Z,0.02
2022-09-10T04:16:03.030Z,0.03
2022-09-10T04:17:03.509Z,0.02
2022-09-10T04:18:03.990Z,0.02
2022-09-10T04:19:03.391Z,0.02
2022-09-10T04:20:03.865Z,0.02
2022-09-10T04:21:03.760Z,0.02
2022-09-10T04:22:03.194Z,0.02
2022-09-10T04:23:03.684Z,0.03
2022-09-10T04:24:03.460Z,0.02
2022-09-10T04:25:03.397Z,0.02
2022-09-10T04:26:03.299Z,0.03
2022-09-10T04:27:02.837Z,0.02
2022-09-10T04:28:02.702Z,0.02
2022-09-10T04:29:02.669Z,0.02
2022-09-10T04:30:02.990Z,0.02
2022-09-10T04:31:02.724Z,0.02
2022-09-10T04:32:03.448Z,0.02
2022-09-10T04:33:03.224Z,0.02
2022-09-10T04:34:03.117Z,0.02
2022-09-10T04:35:03.602Z,0.02
2022-09-10T04:36:03.183Z,0.02
2022-09-10T04:37:02.822Z,0.02
2022-09-10T04:38:02.708Z,0.02
2022-09-10T04:39:02.633Z,0.02
2022-09-10T04:40:03.152Z,0.01
2022-09-10T04:41:02.746Z,0.02
2022-09-10T04:42:03.304Z,0.02
2022-09-10T04:43:03.379Z,0.02
2022-09-10T04:44:03.261Z,0.03
2022-09-10T04:45:03.104Z,0.02
2022-09-10T04:46:03.710Z,0.02
2022-09-10T04:47:03.343Z,0.03
2022-09-10T04:48:06.870Z,0.02
2022-09-10T04:49:03.470Z,0.03
2022-09-10T04:50:03.248Z,0.01
2022-09-10T04:51:16.129Z,0.03
2022-09-10T04:52:03.715Z,0.02
2022-09-10T04:53:03.667Z,0.02
2022-09-10T04:54:03.476Z,0.03
2022-09-10T04:55:03.756Z,0.03
2022-09-10T04:56:03.675Z,0.02
2022-09-10T04:57:03.352Z,0.02
2022-09-10T04:58:03.286Z,0.02
2022-09-10T04:59:03.293Z,0.03
2022-09-10T05:00:03.260Z,0.02
2022-09-10T05:01:03.484Z,0.03
2022-09-10T05:02:02.452Z,0.03
2022-09-10T05:03:02.330Z,0.03
2022-09-10T05:04:02.195Z,0.02
2022-09-10T05:05:02.010Z,0.03
2022-09-10T05:06:02.620Z,0.03
2022-09-10T05:07:02.102Z,0.03
2022-09-10T05:08:02.000Z,0.03
2022-09-10T05:09:01.637Z,0.03
2022-09-10T05:10:02.201Z,0.02
2022-09-10T05:11:01.808Z,0.03
2022-09-10T05:12:02.321Z,0.03
2022-09-10T05:13:02.310Z,0.04
2022-09-10T05:14:02.216Z,0.04
2022-09-10T05:15:02.021Z,0.04
2022-09-10T05:16:02.150Z,0.04
2022-09-10T05:17:02.569Z,0.04
2022-09-10T05:18:02.546Z,0.04
2022-09-10T05:19:02.491Z,0.05
2022-09-10T05:20:02.507Z,0.05
2022-09-10T05:21:02.393Z,0.05
2022-09-10T05:22:03.034Z,0.06
2022-09-10T05:23:03.152Z,0.05
2022-09-10T05:24:02.782Z,0.05
2022-09-10T05:25:03.049Z,0.05
2022-09-10T05:26:03.026Z,0.05
2022-09-10T05:27:02.659Z,0.06
2022-09-10T05:28:02.324Z,0.06
2022-09-10T05:29:02.144Z,0.07
2022-09-10T05:30:02.619Z,0.08
2022-09-10T05:31:02.399Z,0.08
2022-09-10T05:32:02.907Z,0.08
2022-09-10T05:33:02.435Z,0.08
2022-09-10T05:34:02.778Z,0.08
2022-09-10T05:35:02.723Z,0.09
2022-09-10T05:36:02.640Z,0.10
2022-09-10T05:37:03.121Z,0.10
2022-09-10T05:38:02.723Z,0.11
2022-09-10T05:39:02.651Z,0.11
2022-09-10T05:40:03.299Z,0.11
2022-09-10T05:41:02.959Z,0.12
2022-09-10T05:42:02.013Z,0.12
2022-09-10T05:43:02.412Z,0.12
2022-09-10T05:44:02.373Z,0.12
2022-09-10T05:45:02.186Z,0.12
2022-09-10T05:46:02.199Z,0.12
2022-09-10T05:47:02.098Z,0.14
2022-09-10T05:48:02.679Z,0.14
2022-09-10T05:49:02.683Z,0.15
2022-09-10T05:50:02.646Z,0.16
2022-09-10T05:51:02.650Z,0.16
2022-09-10T05:52:03.258Z,0.13
2022-09-10T05:53:03.206Z,0.12
2022-09-10T05:54:03.165Z,0.12
2022-09-10T05:55:02.703Z,0.12
2022-09-10T05:56:03.321Z,0.10
2022-09-10T05:57:02.036Z,0.09
2022-09-10T05:58:02.613Z,0.09
2022-09-10T05:59:02.597Z,0.09
2022-09-10T06:00:02.480Z,0.09
2022-09-10T06:01:02.475Z,0.08
2022-09-10T06:02:03.135Z,0.08
2022-09-10T06:03:02.976Z,0.08
2022-09-10T06:04:02.659Z,0.08
2022-09-10T06:05:02.552Z,0.09
2022-09-10T06:06:02.875Z,0.10
2022-09-10T06:07:03.498Z,0.11
2022-09-10T06:08:08.012Z,0.11
2022-09-10T06:09:03.191Z,0.12
2022-09-10T06:10:03.114Z,0.14
2022-09-10T06:11:03.061Z,0.16
2022-09-10T06:12:03.173Z,0.17
2022-09-10T06:13:03.180Z,0.18
2022-09-10T06:14:03.091Z,0.18
2022-09-10T06:15:03.076Z,0.17
2022-09-10T06:16:03.029Z,0.17
2022-09-10T06:17:02.740Z,0.18
2022-09-10T06:18:02.883Z,0.18
2022-09-10T06:19:02.721Z,0.19
2022-09-10T06:20:02.873Z,0.21
2022-09-10T06:21:02.983Z,0.20
2022-09-10T06:22:02.926Z,0.23
2022-09-10T06:23:03.553Z,0.24
2022-09-10T06:24:03.025Z,0.26
2022-09-10T06:25:03.003Z,0.28
2022-09-10T06:26:02.980Z,0.31
2022-09-10T06:27:02.709Z,0.33
2022-09-10T06:28:02.628Z,0.33
2022-09-10T06:29:03.241Z,0.36
2022-09-10T06:30:02.989Z,0.43
2022-09-10T06:31:03.165Z,0.46
2022-09-10T06:32:02.941Z,0.45
2022-09-10T06:33:02.815Z,0.46
2022-09-10T06:34:03.072Z,0.44
2022-09-10T06:35:03.097Z,0.46
2022-09-10T06:36:03.066Z,0.48
2022-09-10T06:37:03.145Z,0.51
2022-09-10T06:38:03.094Z,0.53
2022-09-10T06:39:03.155Z,0.51
2022-09-10T06:40:03.213Z,0.48
2022-09-10T06:41:03.303Z,0.45
2022-09-10T06:42:03.245Z,0.42
2022-09-10T06:43:03.178Z,0.40
2022-09-10T06:44:03.181Z,0.37
2022-09-10T06:45:03.813Z,0.35
2022-09-10T06:46:03.596Z,0.35
2022-09-10T06:47:45.964Z,0.38
2022-09-10T06:49:02.756Z,0.42
2022-09-10T06:50:03.175Z,0.43
2022-09-10T06:51:02.987Z,0.43
2022-09-10T06:52:02.914Z,0.42
2022-09-10T06:53:03.064Z,0.42
2022-09-10T06:54:03.014Z,0.44
2022-09-10T06:55:03.165Z,0.46
2022-09-10T06:56:03.167Z,0.49
2022-09-10T06:57:02.995Z,0.50
2022-09-10T06:58:02.914Z,0.51
2022-09-10T06:59:02.950Z,0.50
2022-09-10T07:00:02.891Z,0.46
2022-09-10T07:01:02.945Z,0.43
2022-09-10T07:02:02.914Z,0.42
2022-09-10T07:03:02.806Z,0.40
2022-09-10T07:04:02.835Z,0.38
2022-09-10T07:05:03.130Z,0.36
2022-09-10T07:06:02.832Z,0.37
2022-09-10T07:07:02.861Z,0.36
2022-09-10T07:08:02.839Z,0.38
2022-09-10T07:09:02.681Z,0.39
2022-09-10T07:10:02.633Z,0.38
2022-09-10T07:11:03.214Z,0.35
2022-09-10T07:12:02.838Z,0.31
2022-09-10T07:13:02.676Z,0.27
2022-09-10T07:14:02.663Z,0.24
2022-09-10T07:15:03.231Z,0.22
2022-09-10T07:16:02.950Z,0.20
2022-09-10T07:17:02.635Z,0.19
2022-09-10T07:18:02.608Z,0.19
2022-09-10T07:19:02.890Z,0.18
2022-09-10T07:20:02.794Z,0.19
2022-09-10T07:21:02.697Z,0.18
2022-09-10T07:22:02.672Z,0.18
2022-09-10T07:23:02.589Z,0.17
2022-09-10T07:24:02.709Z,0.17
2022-09-10T07:25:02.700Z,0.17
2022-09-10T07:26:02.813Z,0.17
2022-09-10T07:27:02.768Z,0.17
2022-09-10T07:28:02.676Z,0.19
2022-09-10T07:29:02.598Z,0.22
2022-09-10T07:30:02.956Z,0.23
2022-09-10T07:31:02.919Z,0.24
2022-09-10T07:32:02.873Z,0.29
2022-09-10T07:33:02.630Z,0.31
2022-09-10T07:34:03.239Z,0.32
2022-09-10T07:35:02.881Z,0.31
2022-09-10T07:36:02.817Z,0.34
2022-09-10T07:37:02.527Z,0.35
2022-09-10T07:38:02.458Z,0.32
2022-09-10T07:39:02.398Z,0.28
2022-09-10T07:40:02.415Z,0.27
2022-09-10T07:41:02.499Z,0.25
2022-09-10T07:42:03.284Z,0.23
2022-09-10T07:43:03.251Z,0.23
2022-09-10T07:44:03.174Z,0.23
2022-09-10T07:45:03.098Z,0.22
2022-09-10T07:46:04.410Z,0.20
2022-09-10T07:47:02.765Z,0.21
2022-09-10T07:48:02.725Z,0.23
2022-09-10T07:49:02.924Z,0.23
2022-09-10T07:50:02.855Z,0.20
2022-09-10T07:51:02.785Z,0.18
2022-09-10T07:52:02.491Z,0.17
2022-09-10T07:53:02.425Z,0.20
2022-09-10T07:54:02.526Z,0.26
2022-09-10T07:55:02.560Z,0.32
2022-09-10T07:56:02.496Z,0.38
2022-09-10T07:57:02.863Z,0.43
2022-09-10T07:58:02.710Z,0.47
2022-09-10T07:59:02.632Z,0.49
2022-09-10T08:00:02.529Z,0.51
2022-09-10T08:01:02.929Z,0.57
2022-09-10T08:02:02.558Z,0.60
2022-09-10T08:03:02.579Z,0.56
2022-09-10T08:04:04.255Z,0.50
2022-09-10T08:05:02.344Z,0.46
2022-09-10T08:06:02.612Z,0.41
2022-09-10T08:07:02.613Z,0.43
2022-09-10T08:08:02.661Z,0.47
2022-09-10T08:09:02.677Z,0.49
2022-09-10T08:10:02.597Z,0.50
2022-09-10T08:11:02.551Z,0.52
2022-09-10T08:12:02.175Z,0.61
2022-09-10T08:13:02.093Z,0.71
2022-09-10T08:14:01.993Z,0.85
2022-09-10T08:15:01.991Z,0.80
2022-09-10T08:16:01.933Z,0.64
2022-09-10T08:17:02.653Z,0.41
2022-09-10T08:18:02.215Z,0.37
2022-09-10T08:19:02.227Z,0.41
2022-09-10T08:20:02.645Z,0.49
2022-09-10T08:21:02.404Z,0.53
2022-09-10T08:22:01.993Z,0.61
2022-09-10T08:23:01.853Z,0.71
2022-09-10T08:24:01.792Z,0.77
2022-09-10T08:25:01.738Z,0.81
2022-09-10T08:26:01.711Z,0.83
2022-09-10T08:27:02.402Z,0.84
2022-09-10T08:28:02.055Z,0.86
2022-09-10T08:29:01.955Z,0.88
2022-09-10T08:30:01.801Z,0.90
2022-09-10T08:31:01.824Z,0.94
2022-09-10T08:32:02.489Z,0.93
2022-09-10T08:33:02.197Z,0.96
2022-09-10T08:34:02.190Z,0.98
2022-09-10T08:35:02.210Z,1.01
2022-09-10T08:36:02.127Z,1.11
2022-09-10T08:37:02.516Z,1.17
2022-09-10T08:38:02.473Z,1.22
2022-09-10T08:39:07.589Z,1.21
2022-09-10T08:40:02.246Z,1.35
2022-09-10T08:41:02.724Z,1.41
2022-09-10T08:42:02.222Z,1.47
2022-09-10T08:43:02.004Z,1.42
2022-09-10T08:44:01.973Z,1.66
2022-09-10T08:45:01.910Z,2.15
2022-09-10T08:46:01.884Z,2.18
2022-09-10T08:47:02.451Z,2.18
2022-09-10T08:48:02.161Z,1.70
2022-09-10T08:49:02.050Z,1.69
2022-09-10T08:50:02.080Z,1.73
2022-09-10T08:51:02.038Z,1.31
2022-09-10T08:52:02.666Z,1.38
2022-09-10T08:53:02.257Z,1.34
2022-09-10T08:54:02.252Z,1.87
2022-09-10T08:55:02.255Z,2.07
2022-09-10T08:56:02.237Z,1.48
2022-09-10T08:57:02.879Z,1.55
2022-09-10T08:58:02.654Z,1.21
2022-09-10T08:59:02.243Z,0.99
2022-09-10T09:00:02.754Z,0.92
2022-09-10T09:01:02.842Z,0.85
2022-09-10T09:02:01.755Z,0.81
2022-09-10T09:03:01.754Z,0.81
2022-09-10T09:04:06.035Z,0.69
2022-09-10T09:05:01.628Z,0.58
2022-09-10T09:06:02.310Z,0.45
2022-09-10T09:07:01.956Z,0.34
2022-09-10T09:08:02.457Z,0.27
2022-09-10T09:09:02.432Z,0.22
2022-09-10T09:10:02.342Z,0.19
2022-09-10T09:11:02.289Z,0.18
2022-09-10T09:12:02.188Z,0.17
2022-09-10T09:13:02.782Z,0.17
2022-09-10T09:14:02.417Z,0.19
2022-09-10T09:15:05.714Z,0.20
2022-09-10T09:16:02.891Z,0.19
2022-09-10T09:17:01.726Z,0.19
2022-09-10T09:18:02.457Z,0.21
2022-09-10T09:19:02.093Z,0.21
2022-09-10T09:20:01.981Z,0.21
2022-09-10T09:21:02.174Z,0.23
2022-09-10T09:22:02.388Z,0.26
2022-09-10T09:23:02.296Z,0.37
2022-09-10T09:24:13.195Z,0.50
2022-09-10T09:25:02.145Z,0.56
2022-09-10T09:26:02.086Z,0.51
2022-09-10T09:27:01.804Z,0.58
2022-09-10T09:28:02.016Z,0.73
2022-09-10T09:29:02.083Z,0.84
2022-09-10T09:30:02.106Z,0.88
2022-09-10T09:31:03.611Z,0.87
2022-09-10T09:32:01.844Z,0.85
2022-09-10T09:33:02.203Z,0.83
2022-09-10T09:34:02.468Z,0.83
2022-09-10T09:35:02.210Z,0.78
2022-09-10T09:36:02.269Z,0.75
2022-09-10T09:37:02.271Z,0.71
2022-09-10T09:38:02.258Z,0.66
2022-09-10T09:39:02.631Z,0.66
2022-09-10T09:40:02.607Z,0.66
2022-09-10T09:41:02.187Z,0.69
2022-09-10T09:42:01.920Z,0.71
2022-09-10T09:43:01.796Z,0.72
2022-09-10T09:44:01.728Z,0.73
2022-09-10T09:45:02.379Z,0.75
2022-09-10T09:46:02.204Z,0.76
2022-09-10T09:47:02.268Z,0.77
2022-09-10T09:48:02.234Z,0.77
2022-09-10T09:49:02.722Z,0.79
2022-09-10T09:50:02.485Z,0.80
2022-09-10T09:51:02.443Z,0.83
2022-09-10T09:52:02.434Z,0.84
2022-09-10T09:53:02.374Z,0.83
2022-09-10T09:54:34.470Z,0.80
2022-09-10T09:55:14.239Z,0.77
2022-09-10T09:56:02.427Z,0.77
2022-09-10T09:57:02.512Z,0.82
2022-09-10T09:58:02.475Z,0.87
2022-09-10T09:59:02.481Z,0.89
2022-09-10T10:00:02.435Z,0.95
2022-09-10T10:01:02.568Z,1.03
2022-09-10T10:02:03.158Z,1.06
2022-09-10T10:03:03.362Z,1.10
2022-09-10T10:04:03.315Z,1.12
2022-09-10T10:05:03.315Z,1.10
2022-09-10T10:06:03.255Z,1.09
2022-09-10T10:07:03.186Z,1.10
2022-09-10T10:08:03.229Z,1.13
2022-09-10T10:09:03.167Z,1.16
2022-09-10T10:10:03.182Z,1.21
2022-09-10T10:11:03.152Z,1.24
2022-09-10T10:12:02.938Z,1.25
2022-09-10T10:13:02.941Z,1.25
2022-09-10T10:14:02.921Z,1.26
2022-09-10T10:15:02.952Z,1.27
2022-09-10T10:16:03.287Z,1.24
2022-09-10T10:17:02.662Z,1.24
2022-09-10T10:18:02.658Z,1.25
2022-09-10T10:19:02.691Z,1.25
2022-09-10T10:20:02.703Z,1.23
2022-09-10T10:21:02.813Z,1.24
2022-09-10T10:22:02.841Z,1.28
2022-09-10T10:23:02.868Z,1.26
2022-09-10T10:24:02.932Z,1.26
2022-09-10T10:25:02.971Z,1.26
2022-09-10T10:26:02.995Z,1.23
2022-09-10T10:27:02.967Z,1.20
2022-09-10T10:28:03.011Z,1.16
2022-09-10T10:29:03.010Z,1.17
2022-09-10T10:30:02.931Z,1.12
2022-09-10T10:31:02.817Z,1.11
2022-09-10T10:32:05.705Z,1.08
2022-09-10T10:33:03.369Z,1.06
2022-09-10T10:34:03.382Z,1.01
2022-09-10T10:35:03.433Z,0.95
2022-09-10T10:36:03.455Z,0.90
2022-09-10T10:37:03.491Z,0.86
2022-09-10T10:38:03.518Z,0.83
2022-09-10T10:39:03.522Z,0.83
2022-09-10T10:40:03.585Z,0.82
2022-09-10T10:41:03.338Z,0.81
2022-09-10T10:42:03.181Z,0.79
2022-09-10T10:43:03.099Z,0.78
2022-09-10T10:44:02.963Z,0.79
2022-09-10T10:45:02.905Z,0.82
2022-09-10T10:46:03.486Z,0.83
2022-09-10T10:47:02.894Z,0.86
2022-09-10T10:48:02.891Z,0.87
2022-09-10T10:49:04.049Z,0.88
2022-09-10T10:50:02.769Z,0.87
2022-09-10T10:51:02.554Z,0.84
2022-09-10T10:52:03.275Z,0.85
2022-09-10T10:53:03.323Z,0.87
2022-09-10T10:54:03.488Z,0.88
2022-09-10T10:55:03.273Z,0.89
2022-09-10T10:56:03.136Z,0.86
2022-09-10T10:57:03.809Z,0.84
2022-09-10T10:58:03.839Z,0.84
2022-09-10T10:59:04.022Z,0.84
2022-09-10T11:00:03.723Z,0.90
2022-09-10T11:01:03.815Z,0.96
2022-09-10T11:02:02.105Z,0.99
2022-09-10T11:03:01.706Z,1.00
2022-09-10T11:04:01.878Z,0.98
2022-09-10T11:05:01.759Z,0.95
2022-09-10T11:06:01.634Z,0.88
2022-09-10T11:07:02.560Z,0.91
2022-09-10T11:08:02.616Z,0.96
2022-09-10T11:09:02.085Z,0.95
2022-09-10T11:10:02.661Z,0.93
2022-09-10T11:11:02.152Z,0.86
2022-09-10T11:12:02.876Z,0.77
2022-09-10T11:13:02.840Z,0.75
2022-09-10T11:14:02.826Z,0.74
2022-09-10T11:15:02.751Z,0.81
2022-09-10T11:16:02.868Z,0.85
2022-09-10T11:17:02.485Z,0.86
2022-09-10T11:18:02.518Z,0.91
2022-09-10T11:19:02.594Z,0.91
2022-09-10T11:20:24.738Z,0.88
2022-09-10T11:21:02.363Z,0.83
2022-09-10T11:22:02.606Z,0.85
2022-09-10T11:23:02.649Z,0.82
2022-09-10T11:24:02.596Z,0.85
2022-09-10T11:25:02.456Z,0.88
2022-09-10T11:26:02.172Z,0.91
2022-09-10T11:27:02.868Z,0.92
2022-09-10T11:28:02.855Z,0.92
2022-09-10T11:29:02.869Z,0.99
2022-09-10T11:30:02.928Z,1.01
2022-09-10T11:31:02.745Z,1.03
2022-09-10T11:32:02.505Z,1.08
2022-09-10T11:33:02.086Z,1.10
2022-09-10T11:34:02.040Z,1.13
2022-09-10T11:35:02.022Z,1.15
2022-09-10T11:36:02.038Z,1.16
2022-09-10T11:37:02.666Z,1.12
2022-09-10T11:38:02.111Z,1.03
2022-09-10T11:39:02.067Z,0.94
2022-09-10T11:40:02.756Z,0.92
2022-09-10T11:41:02.629Z,0.91
2022-09-10T11:42:02.936Z,0.92
2022-09-10T11:43:02.884Z,0.98
2022-09-10T11:44:02.593Z,0.98
2022-09-10T11:45:02.465Z,0.99
2022-09-10T11:46:02.854Z,1.01
2022-09-10T11:47:01.803Z,1.01
2022-09-10T11:48:02.365Z,1.02
2022-09-10T11:49:02.381Z,1.02
2022-09-10T11:50:02.408Z,1.01
2022-09-10T11:51:02.443Z,1.01
2022-09-10T11:52:02.128Z,0.97
2022-09-10T11:53:02.578Z,0.91
2022-09-10T11:54:02.589Z,0.81
2022-09-10T11:55:02.403Z,0.77
2022-09-10T11:56:02.369Z,0.65
2022-09-10T11:57:02.380Z,0.54
2022-09-10T11:58:03.065Z,0.48
2022-09-10T11:59:02.725Z,0.49
2022-09-10T12:00:02.745Z,0.56
2022-09-10T12:01:02.789Z,0.57
2022-09-10T12:02:02.975Z,0.60
2022-09-10T12:03:02.377Z,0.60
2022-09-10T12:04:02.472Z,0.64
2022-09-10T12:05:02.222Z,0.58
2022-09-10T12:06:02.221Z,0.53
2022-09-10T12:07:02.129Z,0.50
2022-09-10T12:08:02.818Z,0.49
2022-09-10T12:09:02.938Z,0.43
2022-09-10T12:10:02.967Z,0.38
2022-09-10T12:11:02.553Z,0.38
2022-09-10T12:12:02.494Z,0.41
2022-09-10T12:13:02.141Z,0.47
2022-09-10T12:14:02.072Z,0.56
2022-09-10T12:15:01.682Z,0.60
2022-09-10T12:16:02.380Z,0.61
2022-09-10T12:17:01.984Z,0.65
2022-09-10T12:18:02.674Z,0.61
2022-09-10T12:19:02.501Z,0.51
2022-09-10T12:20:02.568Z,0.39
2022-09-10T12:21:02.409Z,0.35
2022-09-10T12:22:02.926Z,0.35
2022-09-10T12:23:01.975Z,0.38
2022-09-10T12:24:01.694Z,0.45
2022-09-10T12:25:01.664Z,0.47
2022-09-10T12:26:01.733Z,0.43
2022-09-10T12:27:02.306Z,0.41
2022-09-10T12:28:01.912Z,0.44
2022-09-10T12:29:02.242Z,0.44
2022-09-10T12:30:01.961Z,0.45
2022-09-10T12:31:01.890Z,0.47
2022-09-10T12:32:01.813Z,0.55
2022-09-10T12:33:02.401Z,0.61
2022-09-10T12:34:02.306Z,0.62
2022-09-10T12:35:02.179Z,0.64
2022-09-10T12:36:02.166Z,0.65
2022-09-10T12:37:02.136Z,0.62
2022-09-10T12:38:03.073Z,0.54
2022-09-10T12:39:03.084Z,0.51
2022-09-10T12:40:02.897Z,0.62
2022-09-10T12:41:02.839Z,0.78
2022-09-10T12:42:02.842Z,0.86
2022-09-10T12:43:02.577Z,0.89
2022-09-10T12:44:02.509Z,0.82
2022-09-10T12:45:02.514Z,0.83
2022-09-10T12:46:02.529Z,0.85
2022-09-10T12:47:02.210Z,0.88
2022-09-10T12:48:02.922Z,0.94
2022-09-10T12:49:02.751Z,0.96
2022-09-10T12:50:02.869Z,1.00
2022-09-10T12:51:02.901Z,1.02
2022-09-10T12:52:02.879Z,1.02
2022-09-10T12:53:02.532Z,0.94
2022-09-10T12:54:02.360Z,0.85
2022-09-10T12:55:02.323Z,0.83
2022-09-10T12:56:02.347Z,0.82
2022-09-10T12:57:02.193Z,0.80
2022-09-10T12:58:02.815Z,0.77
2022-09-10T12:59:02.462Z,0.73
2022-09-10T13:00:02.986Z,0.71
2022-09-10T13:01:02.738Z,0.68
2022-09-10T13:02:02.984Z,0.61
2022-09-10T13:03:02.103Z,0.62
2022-09-10T13:04:02.615Z,0.65
2022-09-10T13:05:02.157Z,0.68
2022-09-10T13:06:02.039Z,0.65
2022-09-10T13:07:02.963Z,0.64
2022-09-10T13:08:02.809Z,0.60
2022-09-10T13:09:02.550Z,0.53
2022-09-10T13:10:02.483Z,0.63
2022-09-10T13:11:02.737Z,0.84
2022-09-10T13:12:02.764Z,0.93
2022-09-10T13:13:03.694Z,1.05
2022-09-10T13:14:02.635Z,1.03
2022-09-10T13:15:02.699Z,1.05
2022-09-10T13:16:02.679Z,1.06
2022-09-10T13:17:02.815Z,1.02
2022-09-10T13:18:02.593Z,0.98
2022-09-10T13:19:02.835Z,1.14